Time;durP1;ratioP1;P1;durP2;ratioP2;P2;SDS_P1;SDS_P2;PMS_P1;PMS_P2;Temp;Humidity;BMP_temperature;BMP_pressure;BME280_temperature;BME280_humidity;BME280_pressure;Samples;Min_cycle;Max_cycle;Signal;HPM_P1;HPM_P2
2023/12/13 00:02:15;;;;;;;14.80;10.43;;;7.90;99.90;;;;;;5116875;27;20035;-71
2023/12/13 00:04:41;;;;;;;14.13;10.55;;;7.90;99.90;;;;;;5118913;27;20046;-71
2023/12/13 00:07:07;;;;;;;17.02;12.02;;;8.20;99.90;;;;;;5119574;27;20031;-71
2023/12/13 00:09:32;;;;;;;15.23;10.80;;;8.20;99.90;;;;;;5117058;27;20043;-71
2023/12/13 00:11:58;;;;;;;13.10;9.25;;;8.10;99.90;;;;;;5097937;27;20547;-71
2023/12/13 00:14:24;;;;;;;14.05;8.68;;;7.90;99.90;;;;;;5115085;27;20043;-71
2023/12/13 00:16:51;;;;;;;10.23;7.85;;;8.10;99.90;;;;;;5114632;27;20513;-71
2023/12/13 00:19:16;;;;;;;10.25;7.85;;;8.10;99.90;;;;;;5115908;27;20050;-71
2023/12/13 00:21:43;;;;;;;11.95;8.20;;;8.00;99.90;;;;;;5124297;27;20042;-71
2023/12/13 00:24:09;;;;;;;13.68;9.68;;;7.80;99.90;;;;;;5125007;27;20061;-71
2023/12/13 00:26:35;;;;;;;14.73;9.70;;;8.10;99.90;;;;;;5130087;27;20514;-71
2023/12/13 00:29:00;;;;;;;13.38;9.57;;;8.10;99.90;;;;;;5133624;27;20474;-71
2023/12/13 00:31:26;;;;;;;13.25;8.90;;;8.10;99.90;;;;;;5131027;27;20047;-71
2023/12/13 00:33:52;;;;;;;10.15;7.63;;;7.80;99.90;;;;;;5116724;27;20059;-77
2023/12/13 00:36:17;;;;;;;9.23;7.15;;;8.10;99.90;;;;;;5119262;27;20096;-77
2023/12/13 00:38:43;;;;;;;9.63;6.80;;;7.70;99.90;;;;;;5112489;28;20134;-77
2023/12/13 00:41:09;;;;;;;10.93;8.27;;;7.90;99.90;;;;;;5114054;28;20093;-77
2023/12/13 00:43:34;;;;;;;9.50;7.00;;;7.90;99.90;;;;;;5119998;27;20035;-72
2023/12/13 00:46:01;;;;;;;8.13;6.05;;;8.00;99.90;;;;;;5121008;27;20037;-72
2023/12/13 00:48:26;;;;;;;;;;;8.00;99.90;;;;;;5107524;27;20043;-72
2023/12/13 00:50:52;;;;;;;10.15;7.28;;;7.70;99.90;;;;;;5105987;27;20249;-72
2023/12/13 00:53:18;;;;;;;11.90;8.55;;;7.80;99.90;;;;;;5106708;27;20119;-72
2023/12/13 00:55:44;;;;;;;9.70;7.35;;;7.90;99.90;;;;;;5112782;27;20172;-72
2023/12/13 00:58:09;;;;;;;8.98;6.57;;;7.60;99.90;;;;;;5125610;27;20078;-72
2023/12/13 01:00:35;;;;;;;8.27;6.65;;;7.90;99.90;;;;;;5112251;27;20027;-72
2023/12/13 01:03:01;;;;;;;9.65;6.90;;;7.60;99.90;;;;;;5118588;27;20043;-72
2023/12/13 01:05:26;;;;;;;10.20;8.02;;;7.70;99.90;;;;;;5125093;27;20032;-72
2023/12/13 01:07:52;;;;;;;11.55;8.25;;;8.00;99.90;;;;;;5110125;28;20043;-72
2023/12/13 01:10:20;;;;;;;14.57;8.32;;;7.70;99.90;;;;;;5121029;27;20066;-72
2023/12/13 01:12:45;;;;;;;11.02;7.80;;;8.00;99.90;;;;;;5100638;28;20478;-72
2023/12/13 01:15:11;;;;;;;11.00;8.20;;;8.00;99.90;;;;;;5108797;28;20109;-72
2023/12/13 01:17:37;;;;;;;11.27;7.13;;;7.90;99.90;;;;;;5111533;27;20470;-72
2023/12/13 01:20:06;;;;;;;10.60;7.82;;;8.00;99.90;;;;;;5097272;28;20048;-72
2023/12/13 01:22:32;;;;;;;11.23;7.80;;;7.80;99.90;;;;;;5107964;27;20050;-72
2023/12/13 01:24:58;;;;;;;11.77;8.25;;;7.70;99.90;;;;;;5125761;27;20039;-72
2023/12/13 01:27:24;;;;;;;11.65;8.40;;;7.90;99.90;;;;;;5126123;27;20429;-72
2023/12/13 01:29:49;;;;;;;11.68;8.00;;;8.00;99.90;;;;;;5120463;27;20035;-72
2023/12/13 01:32:15;;;;;;;9.90;7.20;;;7.90;99.90;;;;;;5117978;27;20115;-72
2023/12/13 01:34:41;;;;;;;9.40;7.20;;;7.80;99.90;;;;;;5114890;27;20048;-72
2023/12/13 01:37:06;;;;;;;9.70;7.13;;;7.70;99.90;;;;;;5111394;27;20491;-72
2023/12/13 01:39:32;;;;;;;11.13;8.10;;;7.80;99.90;;;;;;5088356;28;20092;-72
2023/12/13 01:41:58;;;;;;;11.48;7.40;;;7.70;99.90;;;;;;5110879;28;20491;-72
2023/12/13 01:44:23;;;;;;;10.65;7.57;;;7.70;99.90;;;;;;5111359;27;20444;-72
2023/12/13 01:46:50;;;;;;;10.90;8.00;;;8.10;99.90;;;;;;5096953;28;20054;-72
2023/12/13 01:49:16;;;;;;;9.77;7.00;;;8.10;99.90;;;;;;5117749;27;20053;-72
2023/12/13 01:51:42;;;;;;;;;;;8.00;99.90;;;;;;5120064;27;20043;-72
2023/12/13 01:54:15;;;;;;;8.85;6.43;;;8.10;99.90;;;;;;5115627;27;20018;-73
2023/12/13 01:56:43;;;;;;;9.13;6.53;;;7.90;99.90;;;;;;5093469;28;20654;-73
2023/12/13 01:59:10;;;;;;;8.68;6.40;;;7.70;99.90;;;;;;5116777;28;20039;-72
2023/12/13 02:01:36;;;;;;;7.90;5.55;;;8.10;99.90;;;;;;5111467;27;20050;-72
2023/12/13 02:04:03;;;;;;;6.30;5.00;;;7.90;99.90;;;;;;5125705;27;20047;-72
2023/12/13 02:06:30;;;;;;;9.43;6.38;;;7.70;99.90;;;;;;5122667;27;20047;-72
2023/12/13 02:08:56;;;;;;;9.23;6.35;;;7.70;99.90;;;;;;5111272;28;20058;-73
2023/12/13 02:11:21;;;;;;;8.55;6.15;;;8.00;99.90;;;;;;5128265;27;20035;-72
2023/12/13 02:13:47;;;;;;;9.63;6.43;;;7.70;99.90;;;;;;5128473;28;20120;-72
2023/12/13 02:16:13;;;;;;;10.50;7.60;;;8.10;99.90;;;;;;5129820;28;20168;-72
2023/12/13 02:18:39;;;;;;;10.45;7.22;;;8.10;99.90;;;;;;5130672;28;20044;-77
2023/12/13 02:21:06;;;;;;;9.43;6.90;;;8.10;99.90;;;;;;5131007;28;20046;-77
2023/12/13 02:23:32;;;;;;;11.48;8.05;;;8.00;99.90;;;;;;5133587;27;20517;-77
2023/12/13 02:26:02;;;;;;;9.85;6.90;;;8.10;99.90;;;;;;5115234;28;20044;-77
2023/12/13 02:28:29;;;;;;;9.57;7.15;;;8.10;99.90;;;;;;5130178;28;20042;-77
2023/12/13 02:30:57;;;;;;;8.85;6.20;;;7.70;99.90;;;;;;5118303;28;20482;-78
2023/12/13 02:33:27;;;;;;;9.32;6.85;;;7.90;99.90;;;;;;5111877;28;20144;-78
2023/12/13 02:35:56;;;;;;;9.85;7.05;;;7.70;99.90;;;;;;5121739;28;20642;-78
2023/12/13 02:38:21;;;;;;;9.57;7.10;;;7.80;99.90;;;;;;5108978;28;20082;-77
2023/12/13 02:40:47;;;;;;;9.52;7.05;;;7.80;99.90;;;;;;5111445;28;20075;-78
2023/12/13 02:43:13;;;;;;;9.40;6.80;;;7.80;99.90;;;;;;5079588;28;20035;-77
2023/12/13 02:45:39;;;;;;;8.43;6.13;;;7.90;99.90;;;;;;5140824;27;20035;-78
2023/12/13 02:48:05;;;;;;;10.35;7.50;;;7.80;99.90;;;;;;5148277;27;20122;-77
2023/12/13 02:50:31;;;;;;;9.05;7.03;;;8.00;99.90;;;;;;5117748;27;20039;-78
2023/12/13 02:52:56;;;;;;;13.63;8.82;;;7.90;99.90;;;;;;5114818;27;20128;-77
2023/12/13 02:55:22;;;;;;;12.10;8.07;;;7.70;99.90;;;;;;5114713;28;20138;-77
2023/12/13 02:57:48;;;;;;;12.50;8.63;;;7.80;99.90;;;;;;5105414;28;20043;-78
2023/12/13 03:00:13;;;;;;;11.48;8.23;;;8.20;99.90;;;;;;5095065;28;20399;-78
2023/12/13 03:02:42;;;;;;;11.77;8.27;;;8.20;99.90;;;;;;5118438;27;20493;-78
2023/12/13 03:05:08;;;;;;;14.43;9.88;;;7.90;99.90;;;;;;5129116;27;20374;-78
2023/12/13 03:07:33;;;;;;;14.93;10.85;;;7.80;99.90;;;;;;5117881;27;20040;-78
2023/12/13 03:09:59;;;;;;;14.18;9.95;;;8.10;99.90;;;;;;5112044;27;20460;-77
2023/12/13 03:12:25;;;;;;;16.08;9.93;;;7.80;99.90;;;;;;5117689;27;20090;-78
2023/12/13 03:14:51;;;;;;;16.40;11.32;;;7.90;99.90;;;;;;5119459;27;20062;-78
2023/12/13 03:17:16;;;;;;;13.57;9.60;;;8.20;99.90;;;;;;5096370;27;20119;-77
2023/12/13 03:19:42;;;;;;;13.00;9.38;;;8.20;99.90;;;;;;5107076;27;20040;-78
2023/12/13 03:22:07;;;;;;;16.35;10.45;;;8.10;99.90;;;;;;5122739;27;20039;-77
2023/12/13 03:24:35;;;;;;;14.30;10.35;;;7.90;99.90;;;;;;5116886;27;20118;-78
2023/12/13 03:27:01;;;;;;;14.65;10.30;;;7.90;99.90;;;;;;5097539;27;20044;-78
2023/12/13 03:29:27;;;;;;;19.05;10.68;;;8.20;99.90;;;;;;5127808;27;20122;-78
2023/12/13 03:31:53;;;;;;;14.88;9.77;;;7.90;99.90;;;;;;5105343;28;20150;-78
2023/12/13 03:34:18;;;;;;;12.02;8.68;;;7.90;99.90;;;;;;5101234;27;20529;-77
2023/12/13 03:36:44;;;;;;;11.30;7.88;;;8.10;99.90;;;;;;5114589;27;20046;-78
2023/12/13 03:39:10;;;;;;;13.10;8.40;;;8.00;99.90;;;;;;5114026;27;20380;-77
2023/12/13 03:41:35;;;;;;;12.77;9.18;;;7.90;99.90;;;;;;5108977;27;20049;-77
2023/12/13 03:44:01;;;;;;;14.07;9.68;;;7.90;99.90;;;;;;5112398;27;20119;-77
2023/12/13 03:46:27;;;;;;;15.52;11.25;;;7.90;99.90;;;;;;5141164;27;20071;-77
2023/12/13 03:48:53;;;;;;;14.88;9.02;;;8.20;99.90;;;;;;5096439;28;20495;-78
2023/12/13 03:51:19;;;;;;;13.18;9.00;;;7.80;99.90;;;;;;5095712;28;20131;-78
2023/12/13 03:53:45;;;;;;;13.07;9.35;;;8.00;99.90;;;;;;5127609;27;20047;-78
2023/12/13 03:56:11;;;;;;;11.43;8.15;;;7.90;99.90;;;;;;5104866;28;20049;-78
2023/12/13 03:58:37;;;;;;;12.32;8.82;;;8.00;99.90;;;;;;5113154;27;20044;-78
2023/12/13 04:01:03;;;;;;;12.95;8.70;;;7.80;99.90;;;;;;5100111;27;20046;-78
2023/12/13 04:03:28;;;;;;;12.30;8.77;;;8.00;99.90;;;;;;5112931;27;20114;-78
2023/12/13 04:05:54;;;;;;;12.90;9.20;;;7.90;99.90;;;;;;5105023;27;20480;-77
2023/12/13 04:08:20;;;;;;;12.30;8.38;;;8.30;99.90;;;;;;5091778;27;20402;-77
2023/12/13 04:10:45;;;;;;;11.98;8.55;;;7.80;99.90;;;;;;5106930;27;20048;-77
2023/12/13 04:13:11;;;;;;;10.30;7.90;;;8.20;99.90;;;;;;5104828;27;20468;-77
2023/12/13 04:15:37;;;;;;;13.73;10.18;;;8.20;99.90;;;;;;5105044;28;20078;-77
2023/12/13 04:18:03;;;;;;;12.55;9.13;;;7.80;99.90;;;;;;5113727;27;20082;-77
2023/12/13 04:20:29;;;;;;;14.10;9.40;;;7.80;99.90;;;;;;5113441;27;20074;-77
2023/12/13 04:22:55;;;;;;;12.48;8.90;;;8.30;99.90;;;;;;5113401;27;20526;-77
2023/12/13 04:25:20;;;;;;;10.98;8.15;;;8.20;99.90;;;;;;5114023;27;20043;-77
2023/12/13 04:27:47;;;;;;;12.60;8.88;;;7.80;99.90;;;;;;5113824;27;20082;-77
2023/12/13 04:30:14;;;;;;;14.00;10.27;;;7.70;99.90;;;;;;5126031;27;20482;-77
2023/12/13 04:32:40;;;;;;;12.10;9.10;;;7.80;99.90;;;;;;5104408;28;20540;-77
2023/12/13 04:35:07;;;;;;;12.80;8.98;;;7.90;99.90;;;;;;5114835;27;20138;-78
2023/12/13 04:37:32;;;;;;;12.85;9.27;;;8.20;99.90;;;;;;5131073;27;20043;-78
2023/12/13 04:39:58;;;;;;;11.93;9.18;;;8.00;99.90;;;;;;5114943;27;20546;-77
2023/12/13 04:42:24;;;;;;;11.00;8.30;;;8.20;99.90;;;;;;5113051;27;20043;-77
2023/12/13 04:44:50;;;;;;;11.85;8.98;;;7.80;99.90;;;;;;5118521;27;20039;-77
2023/12/13 04:47:16;;;;;;;11.68;9.05;;;8.00;99.90;;;;;;5133199;27;20087;-77
2023/12/13 04:49:42;;;;;;;12.27;8.93;;;8.20;99.90;;;;;;5128953;27;20058;-77
2023/12/13 04:52:07;;;;;;;12.35;9.02;;;8.20;99.90;;;;;;5112788;27;20046;-77
2023/12/13 04:54:35;;;;;;;13.05;9.77;;;7.90;99.90;;;;;;5095106;27;20047;-77
2023/12/13 04:57:01;;;;;;;11.70;9.07;;;7.80;99.90;;;;;;5132460;27;20179;-76
2023/12/13 04:59:27;;;;;;;11.27;8.18;;;7.80;99.90;;;;;;5132292;27;20510;-76
2023/12/13 05:01:52;;;;;;;11.60;8.35;;;8.10;99.90;;;;;;5115459;27;20499;-76
2023/12/13 05:04:18;;;;;;;9.63;7.28;;;7.80;99.90;;;;;;5093910;28;20137;-76
2023/12/13 05:06:44;;;;;;;8.98;7.25;;;8.10;99.90;;;;;;5090989;28;20047;-72
2023/12/13 05:09:09;;;;;;;10.13;6.47;;;7.90;99.90;;;;;;5092575;27;20173;-72
2023/12/13 05:11:35;;;;;;;10.30;7.65;;;8.20;99.90;;;;;;5116411;27;20039;-72
2023/12/13 05:14:01;;;;;;;8.35;6.55;;;8.20;99.90;;;;;;5109322;27;20089;-72
2023/12/13 05:16:26;;;;;;;9.02;7.32;;;8.20;99.90;;;;;;5113226;27;20031;-72
2023/12/13 05:18:52;;;;;;;9.77;6.93;;;8.20;99.90;;;;;;5090542;28;20425;-76
2023/12/13 05:21:18;;;;;;;11.10;7.22;;;8.20;99.90;;;;;;5107311;27;20035;-75
2023/12/13 05:23:43;;;;;;;10.98;7.18;;;8.00;99.90;;;;;;5107153;28;20119;-71
2023/12/13 05:26:09;;;;;;;8.77;6.90;;;7.80;99.90;;;;;;5109015;27;20039;-71
2023/12/13 05:28:35;;;;;;;10.05;7.95;;;7.70;99.90;;;;;;5110034;28;20466;-71
2023/12/13 05:31:00;;;;;;;9.48;7.25;;;8.20;99.90;;;;;;5127436;27;20051;-71
2023/12/13 05:33:26;;;;;;;7.75;6.30;;;7.80;99.90;;;;;;5113059;27;20043;-71
2023/12/13 05:35:52;;;;;;;8.10;6.47;;;7.70;99.90;;;;;;5110984;27;20514;-71
2023/12/13 05:38:17;;;;;;;9.70;7.45;;;8.20;99.90;;;;;;5073550;28;20510;-71
2023/12/13 05:40:43;;;;;;;9.32;6.82;;;8.20;99.90;;;;;;5102666;27;20075;-71
2023/12/13 05:43:09;;;;;;;9.90;7.30;;;7.80;99.90;;;;;;5111886;27;20050;-71
2023/12/13 05:45:34;;;;;;;7.72;6.45;;;7.70;99.90;;;;;;5114251;27;20723;-71
2023/12/13 05:48:00;;;;;;;7.53;6.07;;;8.20;99.90;;;;;;5111622;27;20040;-71
2023/12/13 05:50:26;;;;;;;7.28;6.13;;;8.00;99.90;;;;;;5114760;27;20047;-71
2023/12/13 05:52:51;;;;;;;7.57;6.22;;;7.70;99.90;;;;;;5111576;27;20376;-71
2023/12/13 05:55:17;;;;;;;8.60;6.55;;;8.20;99.90;;;;;;5093463;28;20043;-71
2023/12/13 05:57:43;;;;;;;8.18;6.80;;;7.80;99.90;;;;;;5094453;28;20040;-71
2023/12/13 06:00:09;;;;;;;8.77;7.65;;;7.70;99.90;;;;;;5110160;28;20071;-71
2023/12/13 06:02:35;;;;;;;9.18;7.28;;;7.80;99.90;;;;;;5111420;27;20036;-71
2023/12/13 06:05:04;;;;;;;8.52;6.15;;;8.20;99.90;;;;;;5111564;27;20040;-71
2023/12/13 06:07:30;;;;;;;9.27;6.90;;;8.20;99.90;;;;;;5117490;28;20119;-71
2023/12/13 06:09:56;;;;;;;7.00;6.00;;;7.80;99.90;;;;;;5116579;27;20039;-71
2023/12/13 06:12:22;;;;;;;7.65;6.22;;;8.10;99.90;;;;;;5100654;28;20046;-71
2023/12/13 06:14:48;;;;;;;8.75;6.43;;;8.00;99.90;;;;;;5120212;28;20043;-71
2023/12/13 06:17:13;;;;;;;7.40;6.03;;;8.00;99.90;;;;;;5117991;28;20173;-71
2023/12/13 06:19:40;;;;;;;8.07;6.35;;;8.20;99.90;;;;;;5118492;27;20511;-71
2023/12/13 06:22:10;;;;;;;8.43;6.10;;;7.80;99.90;;;;;;5118193;27;20336;-71
2023/12/13 06:24:36;;;;;;;8.00;6.72;;;7.80;99.90;;;;;;5120458;27;20047;-70
2023/12/13 06:27:02;;;;;;;7.47;6.15;;;7.80;99.90;;;;;;5123345;27;20039;-72
2023/12/13 06:29:28;;;;;;;7.57;5.80;;;7.80;99.90;;;;;;5105646;27;20535;-72
2023/12/13 06:31:53;;;;;;;7.10;5.60;;;7.90;99.90;;;;;;5120223;27;20063;-72
2023/12/13 06:34:19;;;;;;;7.05;5.68;;;8.20;99.90;;;;;;5086805;27;20043;-73
2023/12/13 06:36:45;;;;;;;7.35;6.00;;;7.70;99.90;;;;;;5120846;27;20051;-73
2023/12/13 06:39:11;;;;;;;7.38;6.28;;;8.20;99.90;;;;;;5103152;28;20036;-73
2023/12/13 06:41:40;;;;;;;8.02;6.28;;;7.80;99.90;;;;;;5094291;27;20155;-73
2023/12/13 06:44:09;;;;;;;7.57;5.95;;;7.90;99.90;;;;;;5123585;27;20038;-73
2023/12/13 06:46:35;;;;;;;7.82;6.55;;;7.70;99.90;;;;;;5116325;27;20048;-73
2023/12/13 06:49:00;;;;;;;8.90;7.05;;;8.20;99.90;;;;;;5113679;27;20102;-72
2023/12/13 06:51:26;;;;;;;9.30;7.25;;;7.80;99.90;;;;;;5113539;27;20043;-72
2023/12/13 06:53:52;;;;;;;9.07;6.97;;;7.80;99.90;;;;;;5117183;27;20042;-72
2023/12/13 06:56:18;;;;;;;8.43;6.75;;;8.00;99.90;;;;;;5118769;27;20093;-72
2023/12/13 06:58:44;;;;;;;8.43;6.80;;;7.80;99.90;;;;;;5119982;27;20104;-73
2023/12/13 07:01:10;;;;;;;8.48;6.90;;;7.90;99.90;;;;;;5120920;27;20053;-73
2023/12/13 07:03:36;;;;;;;7.75;6.82;;;7.80;99.90;;;;;;5121812;27;20139;-73
2023/12/13 07:06:03;;;;;;;9.82;8.07;;;8.10;99.90;;;;;;5099250;27;20524;-73
2023/12/13 07:08:29;;;;;;;8.68;7.15;;;8.20;99.90;;;;;;5117680;27;20042;-73
2023/12/13 07:10:55;;;;;;;7.82;6.55;;;8.20;99.90;;;;;;5120592;27;20039;-73
2023/12/13 07:13:20;;;;;;;10.07;6.93;;;7.80;99.90;;;;;;5101233;28;20076;-73
2023/12/13 07:15:46;;;;;;;8.30;6.63;;;8.00;99.90;;;;;;5091804;27;20184;-73
2023/12/13 07:18:12;;;;;;;8.70;6.78;;;7.70;99.90;;;;;;5122740;27;20070;-73
2023/12/13 07:20:38;;;;;;;8.60;6.75;;;8.30;99.90;;;;;;5116833;27;20050;-73
2023/12/13 07:23:05;;;;;;;9.18;7.40;;;8.30;99.90;;;;;;5104139;27;20043;-73
2023/12/13 07:25:30;;;;;;;9.00;6.85;;;7.80;99.90;;;;;;5123093;27;20063;-78
2023/12/13 07:27:56;;;;;;;10.73;8.25;;;8.30;99.90;;;;;;5124245;27;20070;-78
2023/12/13 07:30:23;;;;;;;9.77;7.65;;;8.30;99.90;;;;;;5070755;27;20074;-78
2023/12/13 07:32:50;;;;;;;10.95;7.93;;;7.80;99.90;;;;;;5122382;27;20040;-78
2023/12/13 07:35:17;;;;;;;10.15;7.93;;;8.20;99.90;;;;;;5119090;27;20087;-76
2023/12/13 07:37:43;;;;;;;9.73;7.32;;;7.80;99.90;;;;;;5126643;27;20107;-75
2023/12/13 07:40:09;;;;;;;8.85;7.60;;;7.90;99.90;;;;;;5106283;27;20482;-76
2023/12/13 07:42:35;;;;;;;10.32;7.60;;;8.30;99.90;;;;;;5117913;27;20040;-78
2023/12/13 07:45:00;;;;;;;9.52;7.78;;;8.20;99.90;;;;;;5101548;27;20123;-77
2023/12/13 07:47:26;;;;;;;9.85;7.80;;;7.80;99.90;;;;;;5121574;27;20036;-77
2023/12/13 07:49:53;;;;;;;9.02;6.88;;;7.80;99.90;;;;;;5121575;27;20042;-77
2023/12/13 07:52:18;;;;;;;8.45;6.00;;;7.70;99.90;;;;;;5102587;27;20043;-78
2023/12/13 07:54:44;;;;;;;10.70;8.38;;;8.30;99.90;;;;;;5122736;27;20047;-77
2023/12/13 07:57:10;;;;;;;11.10;8.05;;;7.80;99.90;;;;;;5104790;28;20040;-77
2023/12/13 07:59:36;;;;;;;10.50;8.10;;;7.80;99.90;;;;;;5120823;27;20082;-77
2023/12/13 08:02:01;;;;;;;11.00;8.13;;;7.80;99.90;;;;;;5122647;27;20096;-77
2023/12/13 08:04:27;;;;;;;9.30;7.43;;;7.80;99.90;;;;;;5106845;27;20813;-77
2023/12/13 08:06:53;;;;;;;10.63;8.23;;;8.10;99.90;;;;;;5119958;27;20065;-72
2023/12/13 08:09:19;;;;;;;9.90;7.88;;;7.90;99.90;;;;;;5118532;27;20039;-73
2023/12/13 08:11:48;;;;;;;11.05;7.72;;;7.80;99.90;;;;;;5117434;27;20061;-72
2023/12/13 08:14:15;;;;;;;9.50;7.50;;;7.90;99.90;;;;;;5096037;27;20038;-72
2023/12/13 08:16:41;;;;;;;9.77;7.88;;;7.80;99.90;;;;;;5121116;27;20075;-72
2023/12/13 08:19:08;;;;;;;9.20;7.03;;;7.80;99.90;;;;;;5120867;27;20122;-72
2023/12/13 08:21:40;;;;;;;9.57;7.53;;;8.40;99.90;;;;;;5120833;27;20044;-73
2023/12/13 08:24:10;;;;;;;9.35;7.43;;;8.00;99.90;;;;;;5117628;27;20539;-73
2023/12/13 08:26:35;;;;;;;11.70;8.38;;;8.10;99.90;;;;;;5118343;27;20040;-72
2023/12/13 08:29:01;;;;;;;9.32;7.72;;;7.80;99.90;;;;;;5100916;27;20478;-73
2023/12/13 08:31:27;;;;;;;9.82;7.90;;;7.90;99.90;;;;;;5110560;27;20131;-73
2023/12/13 08:33:52;;;;;;;10.70;8.57;;;8.40;99.90;;;;;;5098079;28;20047;-72
2023/12/13 08:36:18;;;;;;;8.90;7.15;;;8.40;99.90;;;;;;5112831;27;20051;-71
2023/12/13 08:38:45;;;;;;;10.32;7.80;;;8.30;99.90;;;;;;5117598;27;20048;-71
2023/12/13 08:41:12;;;;;;;9.65;8.00;;;7.90;99.90;;;;;;5118494;27;20093;-72
2023/12/13 08:43:38;;;;;;;10.45;8.50;;;8.40;99.90;;;;;;5117297;27;20072;-71
2023/12/13 08:46:04;;;;;;;10.57;8.55;;;8.30;99.90;;;;;;5119142;27;20061;-71
2023/12/13 08:48:30;;;;;;;11.48;9.00;;;7.90;99.90;;;;;;5119188;27;20137;-71
2023/12/13 08:50:59;;;;;;;10.23;8.52;;;7.90;99.90;;;;;;5117088;27;20092;-71
2023/12/13 08:53:25;;;;;;;9.68;7.97;;;8.30;99.90;;;;;;5121507;27;20517;-72
2023/12/13 08:55:51;;;;;;;10.25;7.50;;;8.20;99.90;;;;;;5121594;27;20051;-71
2023/12/13 08:58:17;;;;;;;8.93;6.82;;;8.30;99.90;;;;;;5117269;27;20043;-72
2023/12/13 09:00:43;;;;;;;9.18;6.93;;;8.00;99.90;;;;;;5122864;27;20554;-71
2023/12/13 09:03:08;;;;;;;10.68;7.80;;;8.50;99.90;;;;;;5120310;27;20031;-72
2023/12/13 09:05:35;;;;;;;8.88;6.90;;;8.40;99.90;;;;;;5119039;27;20043;-72
2023/12/13 09:08:01;;;;;;;9.27;6.60;;;8.60;99.90;;;;;;5101438;27;20042;-72
2023/12/13 09:10:27;;;;;;;8.10;6.32;;;8.20;99.90;;;;;;5117297;27;20031;-72
2023/12/13 09:12:53;;;;;;;8.20;6.20;;;8.20;99.90;;;;;;5110431;27;20050;-71
2023/12/13 09:15:18;;;;;;;9.15;6.78;;;8.20;99.90;;;;;;5121048;27;20119;-71
2023/12/13 09:17:47;;;;;;;7.93;6.35;;;8.60;99.90;;;;;;5119102;27;20035;-72
2023/12/13 09:20:16;;;;;;;9.40;6.63;;;8.60;99.90;;;;;;5118774;27;20486;-71
2023/12/13 09:22:43;;;;;;;10.90;7.00;;;8.20;99.90;;;;;;5119431;27;20230;-71
2023/12/13 09:25:09;;;;;;;8.40;6.72;;;8.70;99.90;;;;;;5118615;27;20157;-71
2023/12/13 09:27:38;;;;;;;10.18;7.07;;;8.40;99.90;;;;;;5102144;27;20046;-72
2023/12/13 09:30:04;;;;;;;10.25;7.75;;;8.70;99.90;;;;;;5122391;27;20716;-76
2023/12/13 09:32:33;;;;;;;9.85;7.57;;;8.30;99.90;;;;;;5105823;27;20050;-77
2023/12/13 09:34:59;;;;;;;10.48;8.43;;;8.60;99.90;;;;;;5124617;27;20063;-76
2023/12/13 09:37:25;;;;;;;;;;;8.50;99.90;;;;;;5119917;27;20058;-76
2023/12/13 09:39:51;;;;;;;11.27;8.27;;;8.40;99.90;;;;;;5121861;27;19923;-76
2023/12/13 09:42:17;;;;;;;11.82;8.98;;;8.60;99.90;;;;;;5119052;27;20084;-76
2023/12/13 09:44:44;;;;;;;13.65;10.00;;;8.40;99.90;;;;;;5118487;27;20047;-76
2023/12/13 09:47:10;;;;;;;;;;;8.80;99.90;;;;;;5120020;27;20031;-76
2023/12/13 09:49:37;;;;;;;13.90;9.50;;;8.90;99.90;;;;;;5119444;27;20298;-76
2023/12/13 09:52:05;;;;;;;13.00;9.70;;;8.90;99.90;;;;;;5121330;27;20046;-76
2023/12/13 09:54:31;;;;;;;15.68;11.88;;;8.90;99.90;;;;;;5118666;27;20058;-76
2023/12/13 09:56:57;;;;;;;;;;;9.20;99.90;;;;;;5122038;27;20079;-76
2023/12/13 09:59:24;;;;;;;18.70;12.30;;;8.60;99.90;;;;;;5120400;27;19986;-76
2023/12/13 10:01:50;;;;;;;14.90;10.90;;;8.90;99.90;;;;;;5117310;27;20039;-76
2023/12/13 10:04:16;;;;;;;16.50;12.18;;;9.20;99.90;;;;;;5121050;27;20088;-76
2023/12/13 10:06:42;;;;;;;13.60;11.18;;;9.20;99.90;;;;;;5118100;27;20051;-76
2023/12/13 10:09:07;;;;;;;13.45;10.10;;;8.80;99.90;;;;;;5098690;28;20039;-76
2023/12/13 10:11:34;;;;;;;16.27;11.35;;;9.30;99.90;;;;;;5121553;27;20039;-76
2023/12/13 10:13:59;;;;;;;15.23;12.27;;;8.80;99.90;;;;;;5117760;27;20494;-77
2023/12/13 10:16:28;;;;;;;14.63;10.90;;;8.90;99.90;;;;;;5119917;28;20184;-77
2023/12/13 10:18:55;;;;;;;16.83;11.52;;;8.80;99.90;;;;;;5119781;28;20035;-76
2023/12/13 10:21:20;;;;;;;;;;;9.10;99.90;;;;;;5120344;28;20505;-76
2023/12/13 10:23:46;;;;;;;13.95;10.82;;;9.00;99.90;;;;;;5120462;28;19920;-76
2023/12/13 10:26:13;;;;;;;12.80;9.50;;;9.10;99.90;;;;;;5120219;28;20139;-76
2023/12/13 10:28:39;;;;;;;13.82;10.93;;;9.40;99.90;;;;;;5099436;28;20043;-77
2023/12/13 10:31:05;;;;;;;13.98;10.95;;;9.40;99.90;;;;;;5100647;28;20047;-76
2023/12/13 10:33:31;;;;;;;15.90;11.80;;;9.10;99.90;;;;;;5117691;28;20483;-76
2023/12/13 10:35:58;;;;;;;;;;;9.20;99.90;;;;;;5121983;28;20134;-76
2023/12/13 10:38:25;;;;;;;17.13;12.65;;;9.00;99.90;;;;;;5100800;28;19927;-76
2023/12/13 10:40:52;;;;;;;15.68;11.38;;;8.90;99.90;;;;;;5118646;28;20043;-76
2023/12/13 10:43:19;;;;;;;15.23;10.95;;;8.90;99.90;;;;;;5119843;28;20448;-76
2023/12/13 10:46:00;;;;;;;13.48;10.27;;;9.00;99.90;;;;;;5121855;28;20031;-76
2023/12/13 10:48:33;;;;;;;13.55;10.88;;;9.30;99.90;;;;;;5117075;28;20470;-76
2023/12/13 10:51:00;;;;;;;15.65;11.10;;;9.20;99.90;;;;;;5120110;28;20402;-76
2023/12/13 10:53:26;;;;;;;13.38;10.10;;;9.40;99.90;;;;;;5121196;28;20054;-76
2023/12/13 10:55:54;;;;;;;12.30;10.05;;;9.20;99.90;;;;;;5116847;28;20054;-76
2023/12/13 10:58:20;;;;;;;14.40;10.10;;;9.30;99.90;;;;;;5121704;28;20509;-76
2023/12/13 11:00:49;;;;;;;12.32;9.52;;;9.00;99.90;;;;;;5119663;28;20050;-76
2023/12/13 11:03:35;;;;;;;12.40;9.50;;;9.50;99.90;;;;;;5117762;28;20121;-76
2023/12/13 11:06:05;;;;;;;11.93;9.57;;;9.20;99.90;;;;;;5120361;27;20546;-76
2023/12/13 11:08:38;;;;;;;14.85;10.35;;;9.10;99.90;;;;;;5125506;27;20043;-76
2023/12/13 11:11:06;;;;;;;15.18;11.70;;;9.10;99.90;;;;;;5117382;27;20040;-76
2023/12/13 11:13:36;;;;;;;17.80;12.38;;;9.20;99.90;;;;;;5119553;27;20039;-76
2023/12/13 11:16:17;;;;;;;18.35;13.88;;;9.10;99.90;;;;;;5112623;27;20124;-76
2023/12/13 11:18:45;;;;;;;19.67;13.40;;;9.40;99.90;;;;;;5124157;27;20696;-76
2023/12/13 11:21:21;;;;;;;18.38;13.38;;;9.10;99.90;;;;;;5126101;27;20114;-76
2023/12/13 11:23:48;;;;;;;28.33;16.90;;;9.60;99.90;;;;;;5102645;27;20044;-76
2023/12/13 11:26:19;;;;;;;20.15;14.30;;;9.50;99.90;;;;;;5121436;27;20031;-76
2023/12/13 11:28:52;;;;;;;16.75;12.13;;;9.20;99.90;;;;;;5121746;27;20127;-76
2023/12/13 11:31:24;;;;;;;17.02;12.27;;;9.20;99.90;;;;;;5123580;27;20794;-76
2023/12/13 11:33:54;;;;;;;17.88;12.57;;;9.60;99.90;;;;;;5120766;27;20039;-76
2023/12/13 11:36:21;;;;;;;16.85;11.52;;;9.30;99.90;;;;;;5117634;27;20402;-76
2023/12/13 11:38:49;;;;;;;20.13;12.15;;;9.40;99.90;;;;;;5125217;27;20056;-76
2023/12/13 11:41:15;;;;;;;17.50;13.30;;;9.70;99.90;;;;;;5122895;27;20039;-76
2023/12/13 11:43:42;;;;;;;21.05;13.70;;;9.70;99.90;;;;;;5105805;27;20495;-76
2023/12/13 11:46:09;;;;;;;22.23;15.43;;;9.40;99.90;;;;;;5119889;27;20076;-76
2023/12/13 11:48:36;;;;;;;23.60;16.65;;;9.60;99.90;;;;;;5120413;27;20047;-76
2023/12/13 11:51:02;;;;;;;23.88;15.98;;;9.30;99.90;;;;;;5124071;27;20050;-76
2023/12/13 11:53:27;;;;;;;26.27;16.20;;;9.30;99.90;;;;;;5120991;27;20047;-77
2023/12/13 11:55:54;;;;;;;26.25;16.75;;;9.40;99.90;;;;;;5088188;27;20072;-76
2023/12/13 11:58:20;;;;;;;24.77;15.80;;;9.20;99.90;;;;;;5123760;27;20042;-77
2023/12/13 12:00:46;;;;;;;25.60;16.33;;;9.40;99.90;;;;;;5123661;27;20044;-76
2023/12/13 12:03:11;;;;;;;26.88;16.98;;;9.40;99.90;;;;;;5120541;27;20082;-76
2023/12/13 12:05:37;;;;;;;26.35;15.85;;;9.50;99.90;;;;;;5121387;27;20470;-76
2023/12/13 12:08:06;;;;;;;23.98;15.20;;;9.30;99.90;;;;;;5106506;27;20558;-76
2023/12/13 12:10:33;;;;;;;28.13;15.88;;;9.20;99.90;;;;;;5123269;27;20031;-76
2023/12/13 12:13:00;;;;;;;22.83;14.63;;;9.40;99.90;;;;;;5124018;27;20043;-77
2023/12/13 12:15:26;;;;;;;22.25;14.35;;;9.20;99.90;;;;;;5119624;27;20148;-76
2023/12/13 12:17:52;;;;;;;25.30;14.32;;;9.50;99.90;;;;;;5125954;27;20096;-76
2023/12/13 12:20:18;;;;;;;22.48;15.50;;;9.40;99.90;;;;;;5120750;27;20048;-76
2023/12/13 12:22:46;;;;;;;25.10;16.13;;;9.40;99.90;;;;;;5106295;27;20035;-76
2023/12/13 12:25:12;;;;;;;21.58;14.63;;;9.40;99.90;;;;;;5121347;27;20039;-76
2023/12/13 12:27:46;;;;;;;21.45;14.70;;;9.10;99.90;;;;;;5119431;27;20043;-76
2023/12/13 12:30:12;;;;;;;22.75;15.65;;;9.10;99.90;;;;;;5119310;27;20043;-76
2023/12/13 12:32:38;;;;;;;19.38;13.73;;;9.20;99.90;;;;;;5120236;27;20458;-76
2023/12/13 12:35:05;;;;;;;20.05;13.65;;;9.00;99.90;;;;;;5095041;27;20051;-76
2023/12/13 12:37:31;;;;;;;18.08;13.00;;;9.30;99.90;;;;;;5105677;27;20055;-76
2023/12/13 12:39:56;;;;;;;19.02;13.60;;;9.00;99.90;;;;;;5114281;27;20039;-76
2023/12/13 12:42:22;;;;;;;18.08;12.32;;;9.00;99.90;;;;;;5102883;27;20031;-76
2023/12/13 12:44:48;;;;;;;19.67;13.23;;;9.10;99.90;;;;;;5121817;27;20122;-76
2023/12/13 12:47:15;;;;;;;16.10;11.60;;;8.90;99.90;;;;;;5107195;27;20101;-77